sensor_id;sensor_type;location;lat;lon;timestamp;pressure;altitude;pressure_sealevel;temperature;humidity
34197;BME280;36594;45.192;5.722;2022-10-23T06:56:11;99086.59;;;20.86;57.76
34197;BME280;36594;45.192;5.722;2022-10-23T06:58:59;99058.30;;;21.22;57.38
34197;BME280;36594;45.192;5.722;2022-10-23T07:01:48;99068.41;;;22.03;55.81
34197;BME280;36594;45.192;5.722;2022-10-23T07:04:39;99039.39;;;22.69;54.22
34197;BME280;36594;45.192;5.722;2022-10-23T07:07:31;99056.51;;;23.24;52.56
34197;BME280;36594;45.192;5.722;2022-10-23T07:10:18;99028.97;;;23.69;51.57
34197;BME280;36594;45.192;5.722;2022-10-23T07:13:13;99052.20;;;24.02;50.67
34197;BME280;36594;45.192;5.722;2022-10-23T07:16:19;99029.03;;;24.34;49.93
34197;BME280;36594;45.192;5.722;2022-10-23T07:19:07;99047.42;;;24.60;49.01
34197;BME280;36594;45.192;5.722;2022-10-23T07:22:11;99033.11;;;24.80;48.29
34197;BME280;36594;45.192;5.722;2022-10-23T07:25:09;99042.08;;;24.97;47.63
34197;BME280;36594;45.192;5.722;2022-10-23T07:27:57;99051.52;;;25.08;47.03
34197;BME280;36594;45.192;5.722;2022-10-23T07:30:50;99048.30;;;25.19;46.45
34197;BME280;36594;45.192;5.722;2022-10-23T07:33:33;99024.47;;;25.27;45.97
34197;BME280;36594;45.192;5.722;2022-10-23T07:36:22;99043.19;;;25.32;45.56
34197;BME280;36594;45.192;5.722;2022-10-23T07:39:11;99016.86;;;25.39;45.26
34197;BME280;36594;45.192;5.722;2022-10-23T07:42:01;99053.44;;;25.42;45.03
34197;BME280;36594;45.192;5.722;2022-10-23T07:44:50;99011.44;;;25.49;44.77
34197;BME280;36594;45.192;5.722;2022-10-23T07:47:37;99019.43;;;25.48;44.76
34197;BME280;36594;45.192;5.722;2022-10-23T07:50:25;99027.98;;;25.54;44.10
34197;BME280;36594;45.192;5.722;2022-10-23T07:53:14;99045.48;;;25.43;42.66
34197;BME280;36594;45.192;5.722;2022-10-23T07:56:03;99046.52;;;25.37;41.93
34197;BME280;36594;45.192;5.722;2022-10-23T07:58:53;99062.16;;;25.31;41.37
34197;BME280;36594;45.192;5.722;2022-10-23T08:01:41;99039.85;;;25.28;41.41
34197;BME280;36594;45.192;5.722;2022-10-23T08:04:29;99058.42;;;25.11;41.59
34197;BME280;36594;45.192;5.722;2022-10-23T08:07:20;99018.00;;;25.11;42.27
34197;BME280;36594;45.192;5.722;2022-10-23T08:10:10;99028.50;;;25.17;42.30
34197;BME280;36594;45.192;5.722;2022-10-23T08:12:59;99034.91;;;25.25;42.36
34197;BME280;36594;45.192;5.722;2022-10-23T08:15:48;99036.30;;;25.27;42.65
34197;BME280;36594;45.192;5.722;2022-10-23T08:18:38;99023.34;;;25.25;42.26
34197;BME280;36594;45.192;5.722;2022-10-23T08:21:27;99033.27;;;25.29;42.47
34197;BME280;36594;45.192;5.722;2022-10-23T08:24:14;99033.27;;;25.29;42.14
34197;BME280;36594;45.192;5.722;2022-10-23T08:27:04;99019.76;;;25.22;41.80
34197;BME280;36594;45.192;5.722;2022-10-23T08:29:53;99023.05;;;25.22;41.97
34197;BME280;36594;45.192;5.722;2022-10-23T08:32:41;99040.10;;;25.24;42.16
34197;BME280;36594;45.192;5.722;2022-10-23T08:35:29;99029.02;;;25.14;42.01
34197;BME280;36594;45.192;5.722;2022-10-23T08:38:17;99041.12;;;25.13;42.26
34197;BME280;36594;45.192;5.722;2022-10-23T08:41:11;99056.53;;;25.16;42.47
34197;BME280;36594;45.192;5.722;2022-10-23T08:44:06;99054.61;;;25.17;42.85
34197;BME280;36594;45.192;5.722;2022-10-23T08:47:01;99036.20;;;25.17;42.90
34197;BME280;36594;45.192;5.722;2022-10-23T08:49:56;99061.48;;;25.17;42.83
34197;BME280;36594;45.192;5.722;2022-10-23T08:52:49;99021.34;;;25.13;43.12
34197;BME280;36594;45.192;5.722;2022-10-23T08:55:39;99047.18;;;25.15;43.05
34197;BME280;36594;45.192;5.722;2022-10-23T08:58:32;99047.45;;;25.13;43.24
34197;BME280;36594;45.192;5.722;2022-10-23T09:23:18;99026.14;;;22.10;48.96
34197;BME280;36594;45.192;5.722;2022-10-23T09:26:00;99058.45;;;22.25;49.49
34197;BME280;36594;45.192;5.722;2022-10-23T09:28:53;99064.06;;;22.86;49.07
34197;BME280;36594;45.192;5.722;2022-10-23T09:31:48;99057.61;;;23.40;48.59
34197;BME280;36594;45.192;5.722;2022-10-23T09:34:38;99050.83;;;23.83;47.90
34197;BME280;36594;45.192;5.722;2022-10-23T09:37:26;99055.41;;;24.16;47.31
34197;BME280;36594;45.192;5.722;2022-10-23T09:43:25;99067.81;;;24.64;46.40
34197;BME280;36594;45.192;5.722;2022-10-23T09:46:05;99062.52;;;24.82;45.97
34197;BME280;36594;45.192;5.722;2022-10-23T09:48:56;99059.89;;;24.92;45.79
34197;BME280;36594;45.192;5.722;2022-10-23T09:51:37;99049.80;;;25.02;45.62
34197;BME280;36594;45.192;5.722;2022-10-23T09:54:27;99056.23;;;25.13;45.41
34197;BME280;36594;45.192;5.722;2022-10-23T09:57:28;99070.91;;;25.26;45.18
34197;BME280;36594;45.192;5.722;2022-10-23T10:00:20;99067.12;;;25.32;45.02
34197;BME280;36594;45.192;5.722;2022-10-23T10:03:06;99066.90;;;25.38;44.89
34197;BME280;36594;45.192;5.722;2022-10-23T10:05:59;99054.81;;;25.42;44.70
34197;BME280;36594;45.192;5.722;2022-10-23T10:08:49;99062.87;;;25.46;44.67
34197;BME280;36594;45.192;5.722;2022-10-23T10:11:50;99070.03;;;25.50;44.52
34197;BME280;36594;45.192;5.722;2022-10-23T10:17:38;99075.03;;;25.55;44.06
34197;BME280;36594;45.192;5.722;2022-10-23T10:23:36;99078.41;;;25.65;43.91
34197;BME280;36594;45.192;5.722;2022-10-23T10:29:22;99080.92;;;25.71;43.94
34197;BME280;36594;45.192;5.722;2022-10-23T10:32:15;99082.86;;;25.73;43.92
34197;BME280;36594;45.192;5.722;2022-10-23T11:56:23;98962.91;;;22.35;53.32
34197;BME280;36594;45.192;5.722;2022-10-23T11:59:17;98944.89;;;23.00;52.01
34197;BME280;36594;45.192;5.722;2022-10-23T12:02:01;98947.42;;;23.59;50.83
34197;BME280;36594;45.192;5.722;2022-10-23T12:04:50;98944.12;;;24.03;49.71
34197;BME280;36594;45.192;5.722;2022-10-23T12:07:38;98925.02;;;24.37;48.76
34197;BME280;36594;45.192;5.722;2022-10-23T15:13:02;98826.69;;;21.50;57.71
34197;BME280;36594;45.192;5.722;2022-10-23T15:15:49;98826.51;;;21.82;57.41
